Terminal Aerodrome Forecast
Issued by NWS Wilmington, OH

Current Version | Previous Version | Graphics & Text | Print | Product List | Glossary Off
Versions: 1 2 3 4 5 6 7 8 9 10 11 12 13 14 15 16 17 18 19 20 21 22 23

000
FTUS41 KILN 050100 AAA
TAFCMH
TAF AMD
KCMH 050101Z 0501/0524 34009KT 1 1/2SM -SN BR SCT007 OVC015
     FM050400 34010KT 4SM -SN BR OVC019
     FM050700 33010KT P6SM SCT018 OVC120
     FM051300 33010KT P6SM BKN025=

USA.gov is the U.S. government's official web portal to all federal, state and local government web resources and services.